UAL400 KSAN-KLAX
Flight info
| Callsign | UAL400 |
|---|---|
| Flight time | 0h 24m |
| Altitude | 10000 |
| Route | CWARD2 SLI DCT |
| Aircraft | A321/M-SDE3FGHIRWY/LB1 |
Departure
| Time | 2026-04-20 01:05 |
|---|---|
| Airport | San Diego International Airport (KSAN) |
Arrival
| Time | 2026-04-20 01:30 |
|---|---|
| Airport | Los Angeles International Airport (KLAX) |
| Time | Latitude | Longitude | Altitude | Speed | Heading |
|---|---|---|---|---|---|
| 2026-04-20 00:38 | 32.73297 | -117.19875 | 25 ft | 0 kts | 97° |
| 2026-04-20 00:51 | 32.73298 | -117.19887 | 25 ft | 2 kts | 96° |
| 2026-04-20 00:51 | 32.73300 | -117.19907 | 30 ft | 2 kts | 96° |
| 2026-04-20 00:52 | 32.73302 | -117.19927 | 28 ft | 2 kts | 96° |
| 2026-04-20 00:52 | 32.73304 | -117.19942 | 31 ft | 2 kts | 98° |
| 2026-04-20 00:52 | 32.73306 | -117.19962 | 32 ft | 3 kts | 77° |
| 2026-04-20 00:52 | 32.73299 | -117.19982 | 31 ft | 3 kts | 39° |
| 2026-04-20 00:53 | 32.73284 | -117.19991 | 30 ft | 0 kts | 9° |
| 2026-04-20 00:57 | 32.73288 | -117.19991 | 30 ft | 3 kts | 9° |
| 2026-04-20 00:58 | 32.73327 | -117.19984 | 27 ft | 7 kts | 7° |
| 2026-04-20 00:58 | 32.73368 | -117.19976 | 27 ft | 7 kts | 11° |
| 2026-04-20 00:58 | 32.73437 | -117.19958 | 27 ft | 12 kts | 16° |
| 2026-04-20 00:58 | 32.73471 | -117.19875 | 28 ft | 13 kts | 99° |
| 2026-04-20 00:59 | 32.73445 | -117.19762 | 27 ft | 16 kts | 106° |
| 2026-04-20 00:59 | 32.73412 | -117.19625 | 26 ft | 18 kts | 106° |
| 2026-04-20 00:59 | 32.73375 | -117.19471 | 27 ft | 21 kts | 106° |
| 2026-04-20 00:59 | 32.73335 | -117.19307 | 24 ft | 18 kts | 107° |
| 2026-04-20 01:00 | 32.73303 | -117.19178 | 24 ft | 21 kts | 107° |
| 2026-04-20 01:00 | 32.73260 | -117.18996 | 28 ft | 24 kts | 105° |
| 2026-04-20 01:00 | 32.73211 | -117.18795 | 27 ft | 26 kts | 107° |
| 2026-04-20 01:00 | 32.73161 | -117.18584 | 27 ft | 27 kts | 106° |
| 2026-04-20 01:01 | 32.73109 | -117.18371 | 25 ft | 23 kts | 107° |
| 2026-04-20 01:01 | 32.73068 | -117.18201 | 24 ft | 22 kts | 106° |
| 2026-04-20 01:01 | 32.73023 | -117.18018 | 21 ft | 21 kts | 105° |
| 2026-04-20 01:01 | 32.73002 | -117.17932 | 20 ft | 13 kts | 106° |
| 2026-04-20 01:02 | 32.72979 | -117.17838 | 20 ft | 8 kts | 105° |
| 2026-04-20 01:02 | 32.72976 | -117.17826 | 19 ft | 0 kts | 105° |
| 2026-04-20 01:03 | 32.72976 | -117.17825 | 19 ft | 1 kts | 105° |
| 2026-04-20 01:03 | 32.72966 | -117.17786 | 18 ft | 9 kts | 106° |
| 2026-04-20 01:03 | 32.72950 | -117.17696 | 19 ft | 12 kts | 90° |
| 2026-04-20 01:04 | 32.72974 | -117.17607 | 23 ft | 10 kts | 59° |
| 2026-04-20 01:04 | 32.73023 | -117.17604 | 22 ft | 4 kts | 320° |
| 2026-04-20 01:04 | 32.73033 | -117.17634 | 22 ft | 0 kts | 289° |
| 2026-04-20 01:04 | 32.73053 | -117.17713 | 21 ft | 37 kts | 286° |
| 2026-04-20 01:05 | 32.73188 | -117.18284 | 27 ft | 104 kts | 285° |
| 2026-04-20 01:05 | 32.73438 | -117.19315 | 26 ft | 154 kts | 286° |
| 2026-04-20 01:05 | 32.73765 | -117.20622 | 396 ft | 169 kts | 287° |
| 2026-04-20 01:05 | 32.74162 | -117.21946 | 1144 ft | 171 kts | 291° |
| 2026-04-20 01:06 | 32.74761 | -117.23171 | 1899 ft | 174 kts | 303° |
| 2026-04-20 01:06 | 32.75497 | -117.24405 | 2288 ft | 194 kts | 304° |
| 2026-04-20 01:06 | 32.76338 | -117.25786 | 2608 ft | 218 kts | 305° |
| 2026-04-20 01:06 | 32.77270 | -117.27332 | 2957 ft | 243 kts | 304° |
| 2026-04-20 01:07 | 32.78296 | -117.29060 | 3474 ft | 265 kts | 303° |
| 2026-04-20 01:07 | 32.79366 | -117.30889 | 4318 ft | 273 kts | 303° |
| 2026-04-20 01:07 | 32.80474 | -117.32751 | 5204 ft | 279 kts | 304° |
| 2026-04-20 01:07 | 32.81646 | -117.34591 | 6075 ft | 285 kts | 306° |
| 2026-04-20 01:08 | 32.82873 | -117.36463 | 6927 ft | 290 kts | 306° |
| 2026-04-20 01:08 | 32.84122 | -117.38359 | 7802 ft | 293 kts | 306° |
| 2026-04-20 01:08 | 32.85385 | -117.40285 | 8683 ft | 296 kts | 306° |
| 2026-04-20 01:08 | 32.86655 | -117.42234 | 9527 ft | 300 kts | 306° |
| 2026-04-20 01:09 | 32.87940 | -117.44216 | 9864 ft | 302 kts | 306° |
| 2026-04-20 01:09 | 32.89211 | -117.46184 | 9962 ft | 302 kts | 306° |
| 2026-04-20 01:09 | 32.90484 | -117.48165 | 9977 ft | 301 kts | 306° |
| 2026-04-20 01:09 | 32.91754 | -117.50137 | 9978 ft | 301 kts | 306° |
| 2026-04-20 01:10 | 32.93024 | -117.52114 | 9980 ft | 301 kts | 306° |
| 2026-04-20 01:10 | 32.95565 | -117.56072 | 9977 ft | 301 kts | 306° |
| 2026-04-20 01:10 | 32.96822 | -117.58024 | 9973 ft | 301 kts | 306° |
| 2026-04-20 01:11 | 32.98093 | -117.60006 | 9974 ft | 301 kts | 306° |
| 2026-04-20 01:11 | 32.99360 | -117.61986 | 9975 ft | 301 kts | 306° |
| 2026-04-20 01:11 | 33.00627 | -117.63970 | 9980 ft | 301 kts | 306° |
| 2026-04-20 01:11 | 33.01897 | -117.65963 | 9978 ft | 301 kts | 306° |
| 2026-04-20 01:12 | 33.03166 | -117.67953 | 9973 ft | 302 kts | 306° |
| 2026-04-20 01:12 | 33.04439 | -117.69946 | 9979 ft | 302 kts | 306° |
| 2026-04-20 01:12 | 33.05713 | -117.71937 | 9981 ft | 302 kts | 306° |
| 2026-04-20 01:12 | 33.07149 | -117.73757 | 9990 ft | 303 kts | 318° |
| 2026-04-20 01:13 | 33.08760 | -117.75386 | 9988 ft | 303 kts | 319° |
| 2026-04-20 01:13 | 33.10371 | -117.77015 | 9989 ft | 304 kts | 318° |
| 2026-04-20 01:13 | 33.11982 | -117.78647 | 9987 ft | 304 kts | 318° |
| 2026-04-20 01:13 | 33.13590 | -117.80284 | 9994 ft | 304 kts | 318° |
| 2026-04-20 01:14 | 33.15178 | -117.81903 | 9985 ft | 304 kts | 318° |
| 2026-04-20 01:14 | 33.16784 | -117.83541 | 9992 ft | 304 kts | 318° |
| 2026-04-20 01:14 | 33.18421 | -117.85137 | 9988 ft | 304 kts | 325° |
| 2026-04-20 01:14 | 33.20297 | -117.86307 | 9995 ft | 305 kts | 340° |
| 2026-04-20 01:15 | 33.22353 | -117.86937 | 9987 ft | 306 kts | 348° |
| 2026-04-20 01:15 | 33.24439 | -117.87448 | 9987 ft | 306 kts | 348° |
| 2026-04-20 01:15 | 33.26525 | -117.87963 | 9987 ft | 306 kts | 348° |
| 2026-04-20 01:15 | 33.28609 | -117.88480 | 9983 ft | 306 kts | 348° |
| 2026-04-20 01:16 | 33.30694 | -117.89001 | 9984 ft | 306 kts | 348° |
| 2026-04-20 01:16 | 33.32778 | -117.89524 | 9992 ft | 306 kts | 348° |
| 2026-04-20 01:16 | 33.34865 | -117.90047 | 9991 ft | 306 kts | 348° |
| 2026-04-20 01:16 | 33.36954 | -117.90569 | 9988 ft | 307 kts | 348° |
| 2026-04-20 01:17 | 33.39035 | -117.91152 | 9994 ft | 306 kts | 342° |
| 2026-04-20 01:17 | 33.41014 | -117.91873 | 9989 ft | 306 kts | 342° |
| 2026-04-20 01:17 | 33.43111 | -117.92635 | 9992 ft | 307 kts | 342° |
| 2026-04-20 01:17 | 33.45125 | -117.93365 | 9990 ft | 307 kts | 342° |
| 2026-04-20 01:18 | 33.47174 | -117.94106 | 9989 ft | 307 kts | 342° |
| 2026-04-20 01:18 | 33.49217 | -117.94845 | 9987 ft | 307 kts | 342° |
| 2026-04-20 01:18 | 33.51257 | -117.95585 | 9991 ft | 307 kts | 342° |
| 2026-04-20 01:18 | 33.53309 | -117.96331 | 9990 ft | 307 kts | 342° |
| 2026-04-20 01:19 | 33.55357 | -117.97076 | 9992 ft | 307 kts | 342° |
| 2026-04-20 01:19 | 33.57409 | -117.97825 | 9993 ft | 307 kts | 342° |
| 2026-04-20 01:19 | 33.59453 | -117.98573 | 9994 ft | 307 kts | 342° |
| 2026-04-20 01:19 | 33.61498 | -117.99325 | 9991 ft | 307 kts | 342° |
| 2026-04-20 01:20 | 33.63521 | -118.00068 | 9990 ft | 308 kts | 342° |
| 2026-04-20 01:20 | 33.65556 | -118.00811 | 9964 ft | 308 kts | 342° |
| 2026-04-20 01:20 | 33.67619 | -118.01564 | 9460 ft | 314 kts | 342° |
| 2026-04-20 01:20 | 33.69694 | -118.02320 | 9197 ft | 309 kts | 342° |
| 2026-04-20 01:21 | 33.71749 | -118.03070 | 8834 ft | 307 kts | 342° |
| 2026-04-20 01:21 | 33.73790 | -118.03794 | 8611 ft | 301 kts | 347° |
| 2026-04-20 01:21 | 33.75834 | -118.04016 | 8476 ft | 288 kts | 360° |
| 2026-04-20 01:21 | 33.77779 | -118.04014 | 8283 ft | 272 kts | 1° |
| 2026-04-20 01:22 | 33.79636 | -118.03998 | 7983 ft | 262 kts | 1° |
| 2026-04-20 01:22 | 33.81426 | -118.03982 | 7655 ft | 254 kts | 1° |
| 2026-04-20 01:22 | 33.83182 | -118.03971 | 7324 ft | 251 kts | 1° |
| 2026-04-20 01:22 | 33.84924 | -118.03964 | 7005 ft | 249 kts | 1° |
| 2026-04-20 01:23 | 33.86625 | -118.03961 | 6655 ft | 247 kts | 1° |
| 2026-04-20 01:23 | 33.88350 | -118.03961 | 6309 ft | 249 kts | 1° |
| 2026-04-20 01:23 | 33.90100 | -118.03967 | 5922 ft | 246 kts | 1° |
| 2026-04-20 01:23 | 33.91787 | -118.03975 | 5551 ft | 244 kts | 1° |
| 2026-04-20 01:24 | 33.93468 | -118.04137 | 5179 ft | 242 kts | 342° |
| 2026-04-20 01:24 | 33.94852 | -118.05200 | 4983 ft | 237 kts | 307° |
| 2026-04-20 01:24 | 33.95695 | -118.06917 | 4991 ft | 240 kts | 293° |
| 2026-04-20 01:24 | 33.96173 | -118.08831 | 4991 ft | 238 kts | 275° |
| 2026-04-20 01:25 | 33.96362 | -118.10806 | 5001 ft | 237 kts | 273° |
| 2026-04-20 01:25 | 33.96473 | -118.12791 | 4785 ft | 236 kts | 267° |
| 2026-04-20 01:25 | 33.96397 | -118.14721 | 4300 ft | 226 kts | 258° |
| 2026-04-20 01:25 | 33.96086 | -118.16559 | 3691 ft | 222 kts | 253° |
| 2026-04-20 01:26 | 33.95712 | -118.18354 | 3130 ft | 219 kts | 258° |
| 2026-04-20 01:26 | 33.95409 | -118.20103 | 2700 ft | 207 kts | 260° |
| 2026-04-20 01:26 | 33.95128 | -118.21771 | 2326 ft | 196 kts | 264° |
| 2026-04-20 01:26 | 33.94944 | -118.23254 | 2206 ft | 169 kts | 270° |
| 2026-04-20 01:27 | 33.94841 | -118.24567 | 2308 ft | 151 kts | 271° |
| 2026-04-20 01:27 | 33.94766 | -118.25807 | 2332 ft | 146 kts | 270° |
| 2026-04-20 01:27 | 33.94719 | -118.27019 | 2310 ft | 145 kts | 269° |
| 2026-04-20 01:27 | 33.94703 | -118.28225 | 2187 ft | 143 kts | 266° |
| 2026-04-20 01:28 | 33.94673 | -118.29417 | 1960 ft | 139 kts | 262° |
| 2026-04-20 01:28 | 33.94541 | -118.30564 | 1687 ft | 136 kts | 260° |
| 2026-04-20 01:28 | 33.94395 | -118.31669 | 1386 ft | 134 kts | 265° |
| 2026-04-20 01:28 | 33.94290 | -118.32789 | 1113 ft | 132 kts | 263° |
| 2026-04-20 01:29 | 33.94201 | -118.33897 | 925 ft | 133 kts | 262° |
| 2026-04-20 01:29 | 33.94071 | -118.34992 | 738 ft | 134 kts | 261° |
| 2026-04-20 01:29 | 33.93951 | -118.36101 | 546 ft | 131 kts | 264° |
| 2026-04-20 01:29 | 33.93846 | -118.37204 | 367 ft | 132 kts | 263° |
| 2026-04-20 01:30 | 33.93732 | -118.38286 | 170 ft | 130 kts | 263° |
| 2026-04-20 01:30 | 33.93638 | -118.39244 | 125 ft | 82 kts | 263° |
| 2026-04-20 01:30 | 33.93604 | -118.39605 | 126 ft | 28 kts | 268° |
| 2026-04-20 01:30 | 33.93630 | -118.39860 | 123 ft | 31 kts | 290° |
| 2026-04-20 01:31 | 33.93666 | -118.40033 | 123 ft | 15 kts | 269° |
| 2026-04-20 01:31 | 33.93658 | -118.40131 | 126 ft | 8 kts | 263° |
| 2026-04-20 01:31 | 33.93649 | -118.40206 | 122 ft | 13 kts | 261° |
| 2026-04-20 01:31 | 33.93655 | -118.40341 | 121 ft | 16 kts | 292° |
| 2026-04-20 01:32 | 33.93712 | -118.40412 | 122 ft | 13 kts | 337° |
| 2026-04-20 01:32 | 33.93807 | -118.40426 | 123 ft | 8 kts | 7° |
| 2026-04-20 01:32 | 33.93839 | -118.40380 | 124 ft | 6 kts | 76° |
| 2026-04-20 01:32 | 33.93844 | -118.40337 | 126 ft | 5 kts | 84° |
| 2026-04-20 01:33 | 33.93844 | -118.40332 | 126 ft | 0 kts | 84° |
| 2026-04-20 01:33 | 33.93856 | -118.40301 | 123 ft | 7 kts | 48° |
| 2026-04-20 01:34 | 33.93902 | -118.40289 | 124 ft | 7 kts | 1° |
| 2026-04-20 01:34 | 33.93936 | -118.40250 | 126 ft | 6 kts | 71° |
| 2026-04-20 01:34 | 33.93942 | -118.40190 | 122 ft | 8 kts | 84° |
| 2026-04-20 01:34 | 33.93948 | -118.40124 | 126 ft | 9 kts | 83° |
| 2026-04-20 01:35 | 33.93951 | -118.40102 | 126 ft | 4 kts | 79° |
| 2026-04-20 01:35 | 33.93977 | -118.40068 | 123 ft | 7 kts | 21° |
| 2026-04-20 01:35 | 33.93992 | -118.40065 | 126 ft | 8 kts | 8° |
| 2026-04-20 01:35 | 33.93999 | -118.40065 | 124 ft | 2 kts | 4° |
| 2026-04-20 01:36 | 33.94034 | -118.40066 | 123 ft | 8 kts | 356° |
| 2026-04-20 01:36 | 33.94094 | -118.40076 | 123 ft | 7 kts | 349° |
| 2026-04-20 01:36 | 33.94136 | -118.40087 | 123 ft | 4 kts | 351° |
| 2026-04-20 01:36 | 33.94148 | -118.40085 | 123 ft | 2 kts | 18° |
| 2026-04-20 01:37 | 33.94158 | -118.40063 | 124 ft | 4 kts | 75° |
| 2026-04-20 01:37 | 33.94158 | -118.40037 | 126 ft | 3 kts | 95° |
| 2026-04-20 01:37 | 33.94157 | -118.40019 | 126 ft | 1 kts | 96° |